Airfield :
LOGIN :

Register | Disclaimer

   EN    FR    IT 

 










Legend :    VFR   Marginal VFR   IFR   Intensive IFR   Very Intensive IFR
Visi :
Ceiling :
>= 8 km
>= 3000ft
5 to 8 km
1000 to 3000 ft
1500m to 5 km
500 to 1000 ft
800 to 1500m
200 to 500 ft
< 800m
< 200 ft
Symbols :   Thunderstorms  Fog  Heavy snow  Heavy precipitations  Wind > 20 kt
SIGMETs :     Misc.  Thunderstorms  Icing  Turbulence  Mountain Waves  Volcanic Ashes







- Airport Elevation : 72 ft
- IATA code : UDE


EHVK - Volkel Airbase

CURRENT METAR :
  • 181425Z AUTO 25007KT 9999 FEW012 BKN033 OVC049 18/15 Q1006 REDZ BLU

EXPIRED METARs :
  • 181355Z AUTO 27006KT 6000 -RA SCT007 BKN010 BKN015 17/16 Q1006 GRN
  • 181338Z AUTO 24009KT 210V280 9999 FEW007 SCT008 BKN010 17/16 Q1006 GRN
  • 181325Z AUTO 23008KT 210V270 9999 FEW006 SCT008 BKN009 17/16 Q1006 REDZ GRN
  • 181315Z AUTO 23008KT 220V280 9999 FEW006 SCT007 BKN019 17/16 Q1006 GRN
  • 181305Z AUTO 23010KT 210V270 7000 BR FEW006 BKN017 OVC020 17/16 Q1006 WHT
  • 181255Z AUTO 24007KT 4500 -DZ SCT006 SCT008 BKN010 17/16 Q1006 REDZ YLO
  • 181232Z AUTO 23007KT 190V270 5000 BR FEW009 BKN011 OVC015 17/15 Q1005 GRN
  • 181225Z AUTO 22006KT 170V240 9999 FEW007 SCT009 BKN013 17/16 Q1005 GRN

TAF TAF EHVK
Valid from the 18 at 13:00 until the 19 at 01:00 UTC


181219Z 1813/1901 22007KT 9999 FEW010 SCT020
PROB40
TEMPO 1813/1815 SCT007 BKN010
PROB30
TEMPO 1815/1818 24008G18KT SCT020CB
BECMG 1822/1901 22010KT
No reported NOTAMs for that airfield.



MET'MAP, your aeronautical weather chart ! - Copyright ORBIFLY December 2007 - Disclaimer

ORBIFLY MET'MAP TEAM :

Programming & Development : Alexandra Zaïnal
Concept & Development : Baudouin d'Aumeries
Co-Development & Prog : Marc-Olivier Méhu
Technical & hardware support : Manuel Goepfert

Contact : metmap@orbifly.com




SOURCES & CREDITS :

   NOAA